Wetterdaten: aktuell Freitag, 30.09.2022 14:00
Datum Zeit Temp 2m Wasser SB Wasser NSB Temp 2m ob Temp 10cm Regen Wind mittel Richtung Richtung Taupunkt Windben
30.09.2022 14:00 5,9 C 13,6 C 11,2 C 16,3 C 16,6 C 0,0 l/m 2,3 km/h NO 45 4,9 C 5,3 km/h
30.09.2022 13:55 5,9 C 13,4 C 11,1 C 16,1 C 16,2 C 0,0 l/m 0,8 km/h N-NW 337 4,9 C 3,1 km/h
30.09.2022 13:50 5,9 C 12,9 C 10,9 C 16,0 C 15,9 C 0,0 l/m 0,5 km/h N-NW 337 4,9 C 0,0 km/h
30.09.2022 13:45 5,9 C 12,9 C 11,1 C 16,2 C 16,2 C 0,0 l/m 0,8 km/h N 360 4,9 C 2,7 km/h
30.09.2022 13:40 5,9 C 13,0 C 11,1 C 16,3 C 17,1 C 0,0 l/m 1,3 km/h SW 225 4,9 C 0,0 km/h
30.09.2022 13:35 5,9 C 13,1 C 11,2 C 16,3 C 17,2 C 0,0 l/m 1,3 km/h NW 315 4,9 C 2,7 km/h
30.09.2022 13:30 5,9 C 13,0 C 11,1 C 16,4 C 17,2 C 0,0 l/m 3,2 km/h N-NW 337 4,9 C 10,3 km/h
30.09.2022 13:25 5,9 C 13,0 C 11,2 C 16,6 C 18,0 C 0,0 l/m 4,2 km/h N 360 4,9 C 0,0 km/h
30.09.2022 13:20 5,9 C 13,2 C 11,2 C 16,7 C 18,6 C 0,0 l/m 4,3 km/h NW 315 4,9 C 8,9 km/h
30.09.2022 13:15 5,9 C 13,1 C 11,2 C 16,6 C 18,4 C 0,0 l/m 4,3 km/h N 360 4,9 C 7,1 km/h
30.09.2022 13:10 5,9 C 13,0 C 11,3 C 16,4 C 18,3 C 0,0 l/m 3,2 km/h NW 315 4,9 C 2,4 km/h
30.09.2022 13:05 5,9 C 13,0 C 11,2 C 16,4 C 18,5 C 0,0 l/m 2,6 km/h N-NO 22 4,9 C 3,4 km/h
30.09.2022 13:00 5,9 C 13,1 C 11,2 C 16,3 C 18,6 C 0,0 l/m 3,2 km/h N-NW 337 4,9 C 2,1 km/h
30.09.2022 12:55 5,9 C 13,0 C 11,3 C 16,3 C 18,8 C 0,0 l/m 2,9 km/h N 360 4,9 C 4,2 km/h
30.09.2022 12:50 5,9 C 12,7 C 11,1 C 16,0 C 18,6 C 0,0 l/m 2,4 km/h S-SW 202 4,9 C 8,4 km/h
30.09.2022 12:45 5,9 C 12,7 C 11,3 C 15,9 C 18,6 C 0,0 l/m 1,9 km/h W-NW 292 4,9 C 4,5 km/h
30.09.2022 12:40 5,9 C 12,4 C 10,9 C 15,7 C 18,2 C 0,0 l/m 1,9 km/h N-NW 337 4,9 C 2,7 km/h
30.09.2022 12:35 5,9 C 12,6 C 11,0 C 15,5 C 17,7 C 0,0 l/m 2,3 km/h S-SO 157 4,9 C 0,0 km/h
30.09.2022 12:30 5,9 C 12,3 C 11,2 C 15,3 C 17,6 C 0,0 l/m 2,6 km/h N 360 4,9 C 5,8 km/h
30.09.2022 12:25 5,9 C 12,6 C 11,1 C 15,3 C 17,8 C 0,0 l/m 2,4 km/h W-SW 247 4,9 C 2,1 km/h
30.09.2022 12:20 5,9 C 12,4 C 11,0 C 15,2 C 18,3 C 0,0 l/m 1,6 km/h NW 315 4,9 C 2,6 km/h
30.09.2022 12:15 5,9 C 12,2 C 10,9 C 15,0 C 18,7 C 0,0 l/m 1,0 km/h W 270 4,9 C 2,1 km/h
30.09.2022 12:10 5,9 C 12,7 C 10,8 C 14,7 C 18,2 C 0,0 l/m 0,8 km/h SW 225 4,9 C 2,4 km/h
30.09.2022 12:05 5,9 C 11,9 C 11,0 C 14,5 C 18,4 C 0,0 l/m 0,8 km/h S 180 4,9 C 3,2 km/h
30.09.2022 12:00 5,9 C 12,1 C 10,5 C 14,2 C 18,5 C 0,0 l/m 1,0 km/h N 360 4,9 C 0,0 km/h
30.09.2022 11:55 5,9 C 12,0 C 10,7 C 13,7 C 18,3 C 0,0 l/m 0,6 km/h S 180 4,9 C 2,1 km/h
_ Min-Zeit 06:35 02:25 06:45 08:25 06:40 - 17:50 - - 06:35 15:35
Minimum _ 2,4 C 7,6 C 6,2 C 1,7 C 1,8 C - 0,0 km/h - - 1,4 C 0,0 km/h
_ Max-Zeit 15:00 14:00 18:35 13:20 12:55 15:15 19:50 - - 15:00 13:30
Maximum _ 11,1 C 13,6 C 11,9 C 16,7 C 18,8 C 0,7 l/m 4,3 km/h
S-SO
- - 7,0 C 10,3 km/h
N-NW
Durchschnitt _ 5,4 C 9,6 C 9,6 C 6,6 C 6,8 C #2,1 l/m 1,2 km/h S-SO - 3,9 C 2,1 km/h